sensor_id;sensor_type;location;lat;lon;timestamp;P1;durP1;ratioP1;P2;durP2;ratioP2
64712;SDS011;51140;45.340;5.980;2022-07-17T00:01:06;5.97;;;2.85;;
64712;SDS011;51140;45.340;5.980;2022-07-17T00:03:32;9.15;;;3.50;;
64712;SDS011;51140;45.340;5.980;2022-07-17T00:05:57;6.95;;;2.83;;
64712;SDS011;51140;45.340;5.980;2022-07-17T00:08:23;6.03;;;3.00;;
64712;SDS011;51140;45.340;5.980;2022-07-17T00:10:48;6.70;;;2.55;;
64712;SDS011;51140;45.340;5.980;2022-07-17T00:13:13;5.35;;;2.92;;
64712;SDS011;51140;45.340;5.980;2022-07-17T00:15:39;5.25;;;2.70;;
64712;SDS011;51140;45.340;5.980;2022-07-17T00:18:04;7.50;;;3.15;;
64712;SDS011;51140;45.340;5.980;2022-07-17T00:20:31;6.03;;;2.50;;
64712;SDS011;51140;45.340;5.980;2022-07-17T00:22:57;5.97;;;2.55;;
64712;SDS011;51140;45.340;5.980;2022-07-17T00:25:23;9.43;;;2.97;;
64712;SDS011;51140;45.340;5.980;2022-07-17T00:27:49;7.38;;;3.25;;
64712;SDS011;51140;45.340;5.980;2022-07-17T00:30:14;6.93;;;3.05;;
64712;SDS011;51140;45.340;5.980;2022-07-17T00:32:41;9.88;;;2.85;;
64712;SDS011;51140;45.340;5.980;2022-07-17T00:35:07;6.75;;;3.00;;
64712;SDS011;51140;45.340;5.980;2022-07-17T00:37:39;7.03;;;3.10;;
64712;SDS011;51140;45.340;5.980;2022-07-17T00:40:13;6.25;;;2.85;;
64712;SDS011;51140;45.340;5.980;2022-07-17T00:42:43;5.25;;;2.83;;
64712;SDS011;51140;45.340;5.980;2022-07-17T00:45:10;9.98;;;2.97;;
64712;SDS011;51140;45.340;5.980;2022-07-17T00:47:56;8.05;;;2.95;;
64712;SDS011;51140;45.340;5.980;2022-07-17T00:50:22;7.10;;;2.70;;
64712;SDS011;51140;45.340;5.980;2022-07-17T00:52:49;6.78;;;3.05;;
64712;SDS011;51140;45.340;5.980;2022-07-17T00:55:15;9.65;;;3.05;;
64712;SDS011;51140;45.340;5.980;2022-07-17T00:57:42;7.05;;;2.90;;
64712;SDS011;51140;45.340;5.980;2022-07-17T01:00:11;7.75;;;2.78;;
64712;SDS011;51140;45.340;5.980;2022-07-17T01:02:37;6.85;;;2.65;;
64712;SDS011;51140;45.340;5.980;2022-07-17T01:05:03;6.75;;;2.70;;
64712;SDS011;51140;45.340;5.980;2022-07-17T01:07:30;8.32;;;2.95;;
64712;SDS011;51140;45.340;5.980;2022-07-17T01:09:55;5.38;;;2.65;;
64712;SDS011;51140;45.340;5.980;2022-07-17T01:12:21;6.10;;;3.08;;
64712;SDS011;51140;45.340;5.980;2022-07-17T01:14:49;6.07;;;2.88;;
64712;SDS011;51140;45.340;5.980;2022-07-17T01:17:15;4.60;;;2.40;;
64712;SDS011;51140;45.340;5.980;2022-07-17T01:19:40;5.78;;;2.80;;
64712;SDS011;51140;45.340;5.980;2022-07-17T01:22:06;8.10;;;2.80;;
64712;SDS011;51140;45.340;5.980;2022-07-17T01:24:31;6.10;;;2.88;;
64712;SDS011;51140;45.340;5.980;2022-07-17T01:26:56;5.95;;;2.85;;
64712;SDS011;51140;45.340;5.980;2022-07-17T01:29:23;6.65;;;2.78;;
64712;SDS011;51140;45.340;5.980;2022-07-17T01:31:48;7.15;;;2.83;;
64712;SDS011;51140;45.340;5.980;2022-07-17T01:34:14;7.32;;;3.00;;
64712;SDS011;51140;45.340;5.980;2022-07-17T01:36:40;6.18;;;2.55;;
64712;SDS011;51140;45.340;5.980;2022-07-17T01:39:06;5.85;;;2.70;;
64712;SDS011;51140;45.340;5.980;2022-07-17T01:41:31;11.63;;;2.90;;
64712;SDS011;51140;45.340;5.980;2022-07-17T01:43:57;6.70;;;2.63;;
64712;SDS011;51140;45.340;5.980;2022-07-17T01:46:23;5.53;;;2.50;;
64712;SDS011;51140;45.340;5.980;2022-07-17T01:48:50;5.85;;;2.70;;
64712;SDS011;51140;45.340;5.980;2022-07-17T01:51:16;7.78;;;2.65;;
64712;SDS011;51140;45.340;5.980;2022-07-17T01:53:42;6.97;;;2.78;;
64712;SDS011;51140;45.340;5.980;2022-07-17T01:56:07;5.53;;;2.50;;
64712;SDS011;51140;45.340;5.980;2022-07-17T01:58:33;5.65;;;2.70;;
64712;SDS011;51140;45.340;5.980;2022-07-17T02:00:58;5.07;;;2.55;;
64712;SDS011;51140;45.340;5.980;2022-07-17T02:03:24;6.57;;;2.58;;
64712;SDS011;51140;45.340;5.980;2022-07-17T02:05:49;5.68;;;2.60;;
64712;SDS011;51140;45.340;5.980;2022-07-17T02:08:15;6.20;;;2.92;;
64712;SDS011;51140;45.340;5.980;2022-07-17T02:10:41;6.93;;;3.05;;
64712;SDS011;51140;45.340;5.980;2022-07-17T02:13:06;6.20;;;2.65;;
64712;SDS011;51140;45.340;5.980;2022-07-17T02:15:31;6.35;;;2.90;;
64712;SDS011;51140;45.340;5.980;2022-07-17T02:17:57;5.10;;;2.50;;
64712;SDS011;51140;45.340;5.980;2022-07-17T02:20:22;7.82;;;2.95;;
64712;SDS011;51140;45.340;5.980;2022-07-17T02:22:49;8.10;;;2.80;;
64712;SDS011;51140;45.340;5.980;2022-07-17T02:25:14;5.43;;;2.42;;
64712;SDS011;51140;45.340;5.980;2022-07-17T02:27:40;6.97;;;2.80;;
64712;SDS011;51140;45.340;5.980;2022-07-17T02:30:07;4.65;;;2.35;;
64712;SDS011;51140;45.340;5.980;2022-07-17T02:32:37;5.55;;;2.70;;
64712;SDS011;51140;45.340;5.980;2022-07-17T02:35:03;5.30;;;2.60;;
64712;SDS011;51140;45.340;5.980;2022-07-17T02:37:29;7.25;;;2.50;;
64712;SDS011;51140;45.340;5.980;2022-07-17T02:39:55;5.90;;;2.72;;
64712;SDS011;51140;45.340;5.980;2022-07-17T02:42:24;6.95;;;2.85;;
64712;SDS011;51140;45.340;5.980;2022-07-17T02:44:51;5.97;;;2.72;;
64712;SDS011;51140;45.340;5.980;2022-07-17T02:47:27;5.22;;;2.33;;
64712;SDS011;51140;45.340;5.980;2022-07-17T02:49:55;7.35;;;2.40;;
64712;SDS011;51140;45.340;5.980;2022-07-17T02:52:20;6.05;;;2.70;;
64712;SDS011;51140;45.340;5.980;2022-07-17T02:54:46;7.32;;;2.70;;
64712;SDS011;51140;45.340;5.980;2022-07-17T02:57:12;6.28;;;2.75;;
64712;SDS011;51140;45.340;5.980;2022-07-17T02:59:38;7.10;;;2.78;;
64712;SDS011;51140;45.340;5.980;2022-07-17T03:02:03;5.43;;;2.58;;
64712;SDS011;51140;45.340;5.980;2022-07-17T03:04:29;5.72;;;2.65;;
64712;SDS011;51140;45.340;5.980;2022-07-17T03:06:55;6.30;;;2.45;;
64712;SDS011;51140;45.340;5.980;2022-07-17T03:09:20;5.60;;;2.70;;
64712;SDS011;51140;45.340;5.980;2022-07-17T03:11:46;6.72;;;2.80;;
64712;SDS011;51140;45.340;5.980;2022-07-17T03:14:11;6.68;;;2.80;;
64712;SDS011;51140;45.340;5.980;2022-07-17T03:16:36;7.60;;;2.55;;
64712;SDS011;51140;45.340;5.980;2022-07-17T03:19:02;7.90;;;2.60;;
64712;SDS011;51140;45.340;5.980;2022-07-17T03:21:27;5.90;;;2.60;;
64712;SDS011;51140;45.340;5.980;2022-07-17T03:23:53;8.15;;;2.75;;
64712;SDS011;51140;45.340;5.980;2022-07-17T03:26:18;6.32;;;2.80;;
64712;SDS011;51140;45.340;5.980;2022-07-17T03:28:44;5.65;;;3.15;;
64712;SDS011;51140;45.340;5.980;2022-07-17T03:31:09;5.10;;;2.60;;
64712;SDS011;51140;45.340;5.980;2022-07-17T03:33:34;5.40;;;2.65;;
64712;SDS011;51140;45.340;5.980;2022-07-17T03:36:00;5.47;;;2.47;;
64712;SDS011;51140;45.340;5.980;2022-07-17T03:38:25;5.13;;;2.50;;
64712;SDS011;51140;45.340;5.980;2022-07-17T03:40:51;5.10;;;2.75;;
64712;SDS011;51140;45.340;5.980;2022-07-17T03:43:16;7.75;;;2.80;;
64712;SDS011;51140;45.340;5.980;2022-07-17T03:45:41;5.90;;;2.60;;
64712;SDS011;51140;45.340;5.980;2022-07-17T03:48:07;7.97;;;2.78;;
64712;SDS011;51140;45.340;5.980;2022-07-17T03:50:33;5.82;;;2.88;;
64712;SDS011;51140;45.340;5.980;2022-07-17T03:52:59;7.03;;;3.20;;
64712;SDS011;51140;45.340;5.980;2022-07-17T03:55:24;6.03;;;2.90;;
64712;SDS011;51140;45.340;5.980;2022-07-17T03:57:50;6.70;;;2.92;;
64712;SDS011;51140;45.340;5.980;2022-07-17T04:00:15;8.85;;;2.78;;
64712;SDS011;51140;45.340;5.980;2022-07-17T04:02:42;11.80;;;3.10;;
64712;SDS011;51140;45.340;5.980;2022-07-17T04:05:08;8.20;;;3.17;;
64712;SDS011;51140;45.340;5.980;2022-07-17T04:07:38;5.68;;;2.53;;
64712;SDS011;51140;45.340;5.980;2022-07-17T04:10:05;8.52;;;2.80;;
64712;SDS011;51140;45.340;5.980;2022-07-17T04:12:31;7.60;;;2.72;;
64712;SDS011;51140;45.340;5.980;2022-07-17T04:14:57;5.95;;;2.50;;
64712;SDS011;51140;45.340;5.980;2022-07-17T04:17:22;5.60;;;2.58;;
64712;SDS011;51140;45.340;5.980;2022-07-17T04:19:48;4.88;;;2.63;;
64712;SDS011;51140;45.340;5.980;2022-07-17T04:22:14;6.78;;;2.88;;
64712;SDS011;51140;45.340;5.980;2022-07-17T04:24:39;6.15;;;2.63;;
64712;SDS011;51140;45.340;5.980;2022-07-17T04:27:05;8.38;;;2.65;;
64712;SDS011;51140;45.340;5.980;2022-07-17T04:29:32;5.68;;;2.83;;
64712;SDS011;51140;45.340;5.980;2022-07-17T04:31:57;8.30;;;2.55;;
64712;SDS011;51140;45.340;5.980;2022-07-17T04:34:23;6.38;;;2.72;;
64712;SDS011;51140;45.340;5.980;2022-07-17T04:36:48;8.10;;;3.10;;
64712;SDS011;51140;45.340;5.980;2022-07-17T04:39:14;6.07;;;3.10;;
64712;SDS011;51140;45.340;5.980;2022-07-17T04:41:39;5.90;;;2.72;;
64712;SDS011;51140;45.340;5.980;2022-07-17T04:44:04;6.85;;;2.40;;
64712;SDS011;51140;45.340;5.980;2022-07-17T04:46:30;5.88;;;2.60;;
64712;SDS011;51140;45.340;5.980;2022-07-17T04:48:55;6.97;;;2.88;;
64712;SDS011;51140;45.340;5.980;2022-07-17T04:51:21;7.68;;;2.83;;
64712;SDS011;51140;45.340;5.980;2022-07-17T04:53:46;6.65;;;2.90;;
64712;SDS011;51140;45.340;5.980;2022-07-17T04:56:11;5.25;;;2.70;;
64712;SDS011;51140;45.340;5.980;2022-07-17T04:58:37;9.15;;;3.10;;
64712;SDS011;51140;45.340;5.980;2022-07-17T05:01:02;8.38;;;2.60;;
64712;SDS011;51140;45.340;5.980;2022-07-17T05:03:28;5.93;;;2.67;;
64712;SDS011;51140;45.340;5.980;2022-07-17T05:05:53;5.82;;;3.05;;
64712;SDS011;51140;45.340;5.980;2022-07-17T05:08:18;7.65;;;3.17;;
64712;SDS011;51140;45.340;5.980;2022-07-17T05:10:44;8.35;;;2.75;;
64712;SDS011;51140;45.340;5.980;2022-07-17T05:13:10;6.75;;;3.10;;
64712;SDS011;51140;45.340;5.980;2022-07-17T05:15:37;5.28;;;2.55;;
64712;SDS011;51140;45.340;5.980;2022-07-17T05:18:03;8.38;;;2.97;;
64712;SDS011;51140;45.340;5.980;2022-07-17T05:20:28;6.85;;;2.90;;
64712;SDS011;51140;45.340;5.980;2022-07-17T05:22:54;5.65;;;2.97;;
64712;SDS011;51140;45.340;5.980;2022-07-17T05:25:19;7.47;;;3.20;;
64712;SDS011;51140;45.340;5.980;2022-07-17T05:27:44;5.40;;;2.80;;
64712;SDS011;51140;45.340;5.980;2022-07-17T05:30:10;7.00;;;2.97;;
64712;SDS011;51140;45.340;5.980;2022-07-17T05:32:35;6.10;;;2.85;;
64712;SDS011;51140;45.340;5.980;2022-07-17T05:35:01;10.32;;;3.13;;
64712;SDS011;51140;45.340;5.980;2022-07-17T05:37:26;5.82;;;2.75;;
64712;SDS011;51140;45.340;5.980;2022-07-17T05:39:51;7.38;;;2.90;;
64712;SDS011;51140;45.340;5.980;2022-07-17T05:42:17;7.90;;;2.80;;
64712;SDS011;51140;45.340;5.980;2022-07-17T05:44:42;7.90;;;2.90;;
64712;SDS011;51140;45.340;5.980;2022-07-17T05:47:08;5.07;;;2.80;;
64712;SDS011;51140;45.340;5.980;2022-07-17T05:49:33;6.28;;;2.97;;
64712;SDS011;51140;45.340;5.980;2022-07-17T05:51:58;8.07;;;2.90;;
64712;SDS011;51140;45.340;5.980;2022-07-17T05:54:24;5.13;;;3.05;;
64712;SDS011;51140;45.340;5.980;2022-07-17T05:56:49;6.20;;;2.80;;
64712;SDS011;51140;45.340;5.980;2022-07-17T05:59:15;5.95;;;2.97;;
64712;SDS011;51140;45.340;5.980;2022-07-17T06:01:40;8.15;;;3.15;;
64712;SDS011;51140;45.340;5.980;2022-07-17T06:04:06;9.00;;;3.30;;
64712;SDS011;51140;45.340;5.980;2022-07-17T06:06:32;6.60;;;2.90;;
64712;SDS011;51140;45.340;5.980;2022-07-17T06:08:57;6.57;;;2.75;;
64712;SDS011;51140;45.340;5.980;2022-07-17T06:11:23;5.78;;;2.97;;
64712;SDS011;51140;45.340;5.980;2022-07-17T06:13:48;6.32;;;2.80;;
64712;SDS011;51140;45.340;5.980;2022-07-17T06:16:13;7.05;;;2.50;;
64712;SDS011;51140;45.340;5.980;2022-07-17T06:18:39;7.45;;;2.97;;
64712;SDS011;51140;45.340;5.980;2022-07-17T06:21:04;6.13;;;3.15;;
64712;SDS011;51140;45.340;5.980;2022-07-17T06:23:30;5.82;;;2.88;;
64712;SDS011;51140;45.340;5.980;2022-07-17T06:25:55;5.47;;;2.85;;
64712;SDS011;51140;45.340;5.980;2022-07-17T06:28:21;6.53;;;2.83;;
64712;SDS011;51140;45.340;5.980;2022-07-17T06:30:46;6.18;;;2.90;;
64712;SDS011;51140;45.340;5.980;2022-07-17T06:33:13;6.82;;;3.17;;
64712;SDS011;51140;45.340;5.980;2022-07-17T06:35:38;5.57;;;2.80;;
64712;SDS011;51140;45.340;5.980;2022-07-17T06:38:04;7.25;;;3.15;;
64712;SDS011;51140;45.340;5.980;2022-07-17T06:40:29;7.13;;;2.70;;
64712;SDS011;51140;45.340;5.980;2022-07-17T06:42:55;5.95;;;2.92;;
64712;SDS011;51140;45.340;5.980;2022-07-17T06:45:20;6.60;;;3.38;;
64712;SDS011;51140;45.340;5.980;2022-07-17T06:47:46;7.82;;;3.35;;
64712;SDS011;51140;45.340;5.980;2022-07-17T06:50:11;7.07;;;3.10;;
64712;SDS011;51140;45.340;5.980;2022-07-17T06:52:36;8.38;;;2.95;;
64712;SDS011;51140;45.340;5.980;2022-07-17T06:55:02;7.57;;;3.20;;
64712;SDS011;51140;45.340;5.980;2022-07-17T06:57:27;9.07;;;2.75;;
64712;SDS011;51140;45.340;5.980;2022-07-17T06:59:53;6.07;;;3.10;;
64712;SDS011;51140;45.340;5.980;2022-07-17T07:02:18;5.75;;;2.63;;
64712;SDS011;51140;45.340;5.980;2022-07-17T07:04:44;7.32;;;3.00;;
64712;SDS011;51140;45.340;5.980;2022-07-17T07:07:10;7.05;;;2.83;;
64712;SDS011;51140;45.340;5.980;2022-07-17T07:09:35;5.80;;;2.72;;
64712;SDS011;51140;45.340;5.980;2022-07-17T07:12:01;8.13;;;3.00;;
64712;SDS011;51140;45.340;5.980;2022-07-17T07:14:26;6.43;;;3.15;;
64712;SDS011;51140;45.340;5.980;2022-07-17T07:16:52;7.90;;;3.03;;
64712;SDS011;51140;45.340;5.980;2022-07-17T07:19:17;6.30;;;2.90;;
64712;SDS011;51140;45.340;5.980;2022-07-17T07:21:43;4.68;;;2.35;;
64712;SDS011;51140;45.340;5.980;2022-07-17T07:24:08;5.97;;;2.53;;
64712;SDS011;51140;45.340;5.980;2022-07-17T07:26:33;6.35;;;2.42;;
64712;SDS011;51140;45.340;5.980;2022-07-17T07:28:59;7.68;;;2.70;;
64712;SDS011;51140;45.340;5.980;2022-07-17T07:31:24;5.75;;;2.65;;
64712;SDS011;51140;45.340;5.980;2022-07-17T07:33:50;5.63;;;2.63;;
64712;SDS011;51140;45.340;5.980;2022-07-17T07:36:15;6.60;;;2.40;;
64712;SDS011;51140;45.340;5.980;2022-07-17T07:38:40;5.93;;;2.35;;
64712;SDS011;51140;45.340;5.980;2022-07-17T07:41:06;4.93;;;2.30;;
64712;SDS011;51140;45.340;5.980;2022-07-17T07:43:31;7.72;;;2.40;;
64712;SDS011;51140;45.340;5.980;2022-07-17T07:45:57;5.40;;;2.25;;
64712;SDS011;51140;45.340;5.980;2022-07-17T07:48:23;6.10;;;2.60;;
64712;SDS011;51140;45.340;5.980;2022-07-17T07:50:48;4.88;;;2.10;;
64712;SDS011;51140;45.340;5.980;2022-07-17T07:53:14;6.07;;;2.20;;
64712;SDS011;51140;45.340;5.980;2022-07-17T07:55:39;8.75;;;2.20;;
64712;SDS011;51140;45.340;5.980;2022-07-17T07:58:08;8.70;;;2.40;;
64712;SDS011;51140;45.340;5.980;2022-07-17T08:00:36;9.20;;;2.15;;
64712;SDS011;51140;45.340;5.980;2022-07-17T08:03:02;5.85;;;2.22;;
64712;SDS011;51140;45.340;5.980;2022-07-17T08:05:29;4.90;;;1.77;;
64712;SDS011;51140;45.340;5.980;2022-07-17T08:07:56;5.85;;;2.10;;
64712;SDS011;51140;45.340;5.980;2022-07-17T08:10:21;6.00;;;2.67;;
64712;SDS011;51140;45.340;5.980;2022-07-17T08:12:47;5.18;;;2.20;;
64712;SDS011;51140;45.340;5.980;2022-07-17T08:15:16;5.00;;;1.83;;
64712;SDS011;51140;45.340;5.980;2022-07-17T08:17:43;5.40;;;2.00;;
64712;SDS011;51140;45.340;5.980;2022-07-17T08:20:09;4.45;;;1.83;;
64712;SDS011;51140;45.340;5.980;2022-07-17T08:22:35;6.00;;;2.22;;
64712;SDS011;51140;45.340;5.980;2022-07-17T08:25:00;7.93;;;2.20;;
64712;SDS011;51140;45.340;5.980;2022-07-17T08:27:25;5.80;;;2.20;;
64712;SDS011;51140;45.340;5.980;2022-07-17T08:29:51;6.35;;;1.90;;
64712;SDS011;51140;45.340;5.980;2022-07-17T08:32:16;6.07;;;1.90;;
64712;SDS011;51140;45.340;5.980;2022-07-17T08:34:42;3.92;;;2.20;;
64712;SDS011;51140;45.340;5.980;2022-07-17T08:37:07;5.53;;;2.10;;
64712;SDS011;51140;45.340;5.980;2022-07-17T08:39:32;7.68;;;2.22;;
64712;SDS011;51140;45.340;5.980;2022-07-17T08:41:58;10.05;;;2.30;;
64712;SDS011;51140;45.340;5.980;2022-07-17T08:44:23;6.60;;;2.22;;
64712;SDS011;51140;45.340;5.980;2022-07-17T08:46:49;6.03;;;2.10;;
64712;SDS011;51140;45.340;5.980;2022-07-17T08:49:15;4.80;;;2.40;;
64712;SDS011;51140;45.340;5.980;2022-07-17T08:51:46;6.40;;;2.25;;
64712;SDS011;51140;45.340;5.980;2022-07-17T08:54:12;5.88;;;2.08;;
64712;SDS011;51140;45.340;5.980;2022-07-17T08:56:38;8.40;;;2.20;;
64712;SDS011;51140;45.340;5.980;2022-07-17T08:59:03;4.55;;;2.08;;
64712;SDS011;51140;45.340;5.980;2022-07-17T09:01:29;4.25;;;2.20;;
64712;SDS011;51140;45.340;5.980;2022-07-17T09:06:21;5.10;;;2.28;;
64712;SDS011;51140;45.340;5.980;2022-07-17T09:08:47;4.15;;;2.10;;
64712;SDS011;51140;45.340;5.980;2022-07-17T09:11:13;6.43;;;2.70;;
64712;SDS011;51140;45.340;5.980;2022-07-17T09:13:42;8.70;;;2.13;;
64712;SDS011;51140;45.340;5.980;2022-07-17T09:16:12;6.95;;;2.05;;
64712;SDS011;51140;45.340;5.980;2022-07-17T09:18:50;6.65;;;2.30;;
64712;SDS011;51140;45.340;5.980;2022-07-17T09:21:23;5.57;;;2.22;;
64712;SDS011;51140;45.340;5.980;2022-07-17T09:23:59;3.88;;;2.10;;
64712;SDS011;51140;45.340;5.980;2022-07-17T09:26:25;7.05;;;2.35;;
64712;SDS011;51140;45.340;5.980;2022-07-17T09:28:51;5.85;;;2.15;;
64712;SDS011;51140;45.340;5.980;2022-07-17T09:31:24;6.97;;;2.22;;
64712;SDS011;51140;45.340;5.980;2022-07-17T09:33:50;4.85;;;2.20;;
64712;SDS011;51140;45.340;5.980;2022-07-17T09:36:16;5.95;;;2.30;;
64712;SDS011;51140;45.340;5.980;2022-07-17T09:38:42;4.85;;;2.10;;
64712;SDS011;51140;45.340;5.980;2022-07-17T09:41:10;5.63;;;2.10;;
64712;SDS011;51140;45.340;5.980;2022-07-17T09:46:17;4.43;;;2.30;;
64712;SDS011;51140;45.340;5.980;2022-07-17T09:48:45;7.15;;;2.63;;
64712;SDS011;51140;45.340;5.980;2022-07-17T09:51:16;4.50;;;2.40;;
64712;SDS011;51140;45.340;5.980;2022-07-17T09:53:53;6.93;;;2.33;;
64712;SDS011;51140;45.340;5.980;2022-07-17T09:56:21;4.10;;;2.30;;
64712;SDS011;51140;45.340;5.980;2022-07-17T09:58:49;4.75;;;2.20;;
64712;SDS011;51140;45.340;5.980;2022-07-17T10:01:19;5.57;;;2.38;;
64712;SDS011;51140;45.340;5.980;2022-07-17T10:03:46;5.38;;;2.30;;
64712;SDS011;51140;45.340;5.980;2022-07-17T10:06:14;5.95;;;2.63;;
64712;SDS011;51140;45.340;5.980;2022-07-17T10:08:39;6.82;;;2.38;;
64712;SDS011;51140;45.340;5.980;2022-07-17T10:11:06;4.75;;;2.40;;
64712;SDS011;51140;45.340;5.980;2022-07-17T10:13:32;5.00;;;2.17;;
64712;SDS011;51140;45.340;5.980;2022-07-17T10:15:59;4.95;;;2.20;;
64712;SDS011;51140;45.340;5.980;2022-07-17T10:21:14;4.80;;;2.20;;
64712;SDS011;51140;45.340;5.980;2022-07-17T10:23:42;6.47;;;2.20;;
64712;SDS011;51140;45.340;5.980;2022-07-17T10:26:12;4.47;;;2.30;;
64712;SDS011;51140;45.340;5.980;2022-07-17T10:28:42;5.00;;;2.10;;
64712;SDS011;51140;45.340;5.980;2022-07-17T10:31:09;6.70;;;2.28;;
64712;SDS011;51140;45.340;5.980;2022-07-17T10:33:35;7.13;;;2.25;;
64712;SDS011;51140;45.340;5.980;2022-07-17T10:36:02;4.82;;;2.03;;
64712;SDS011;51140;45.340;5.980;2022-07-17T10:38:27;4.80;;;2.20;;
64712;SDS011;51140;45.340;5.980;2022-07-17T10:41:00;4.60;;;2.53;;
64712;SDS011;51140;45.340;5.980;2022-07-17T10:43:26;10.02;;;2.30;;
64712;SDS011;51140;45.340;5.980;2022-07-17T10:45:51;5.18;;;2.30;;
64712;SDS011;51140;45.340;5.980;2022-07-17T10:48:18;6.55;;;2.40;;
64712;SDS011;51140;45.340;5.980;2022-07-17T10:50:46;4.65;;;2.30;;
64712;SDS011;51140;45.340;5.980;2022-07-17T10:53:20;4.80;;;2.47;;
64712;SDS011;51140;45.340;5.980;2022-07-17T10:55:50;5.50;;;2.35;;
64712;SDS011;51140;45.340;5.980;2022-07-17T10:58:29;6.07;;;2.40;;
64712;SDS011;51140;45.340;5.980;2022-07-17T11:03:56;6.60;;;2.20;;
64712;SDS011;51140;45.340;5.980;2022-07-17T11:06:31;4.60;;;2.05;;
64712;SDS011;51140;45.340;5.980;2022-07-17T11:08:58;5.82;;;2.22;;
64712;SDS011;51140;45.340;5.980;2022-07-17T11:11:35;5.53;;;2.38;;
64712;SDS011;51140;45.340;5.980;2022-07-17T11:16:37;5.03;;;2.42;;
64712;SDS011;51140;45.340;5.980;2022-07-17T11:19:19;5.03;;;2.58;;
64712;SDS011;51140;45.340;5.980;2022-07-17T11:21:56;5.40;;;2.13;;
64712;SDS011;51140;45.340;5.980;2022-07-17T11:24:23;4.60;;;2.15;;
64712;SDS011;51140;45.340;5.980;2022-07-17T11:26:51;4.75;;;2.40;;
64712;SDS011;51140;45.340;5.980;2022-07-17T11:29:17;5.03;;;2.30;;
64712;SDS011;51140;45.340;5.980;2022-07-17T11:31:43;6.43;;;2.70;;
64712;SDS011;51140;45.340;5.980;2022-07-17T11:34:09;5.18;;;2.50;;
64712;SDS011;51140;45.340;5.980;2022-07-17T11:36:40;10.13;;;2.42;;
64712;SDS011;51140;45.340;5.980;2022-07-17T11:39:08;5.47;;;2.20;;
64712;SDS011;51140;45.340;5.980;2022-07-17T11:41:37;6.30;;;2.50;;
64712;SDS011;51140;45.340;5.980;2022-07-17T11:44:08;5.53;;;2.67;;
64712;SDS011;51140;45.340;5.980;2022-07-17T11:46:40;5.90;;;2.80;;
64712;SDS011;51140;45.340;5.980;2022-07-17T11:49:08;5.80;;;2.28;;
64712;SDS011;51140;45.340;5.980;2022-07-17T11:54:12;4.13;;;2.22;;
64712;SDS011;51140;45.340;5.980;2022-07-17T11:56:39;7.05;;;2.63;;
64712;SDS011;51140;45.340;5.980;2022-07-17T11:59:05;5.90;;;2.60;;
64712;SDS011;51140;45.340;5.980;2022-07-17T12:01:41;5.93;;;2.55;;
64712;SDS011;51140;45.340;5.980;2022-07-17T12:04:10;9.50;;;2.65;;
64712;SDS011;51140;45.340;5.980;2022-07-17T12:06:39;5.57;;;2.67;;
64712;SDS011;51140;45.340;5.980;2022-07-17T12:09:05;7.57;;;2.78;;
64712;SDS011;51140;45.340;5.980;2022-07-17T12:11:32;6.95;;;2.58;;
64712;SDS011;51140;45.340;5.980;2022-07-17T12:14:04;6.18;;;2.70;;
64712;SDS011;51140;45.340;5.980;2022-07-17T12:16:34;6.28;;;2.42;;
64712;SDS011;51140;45.340;5.980;2022-07-17T12:19:12;5.90;;;2.60;;
64712;SDS011;51140;45.340;5.980;2022-07-17T12:21:47;7.50;;;3.00;;
64712;SDS011;51140;45.340;5.980;2022-07-17T12:24:20;5.15;;;2.28;;
64712;SDS011;51140;45.340;5.980;2022-07-17T12:26:57;5.27;;;2.60;;
64712;SDS011;51140;45.340;5.980;2022-07-17T12:29:26;5.82;;;2.80;;
64712;SDS011;51140;45.340;5.980;2022-07-17T12:34:30;5.43;;;2.80;;
64712;SDS011;51140;45.340;5.980;2022-07-17T12:36:56;7.15;;;2.55;;
64712;SDS011;51140;45.340;5.980;2022-07-17T12:39:21;5.13;;;2.70;;
64712;SDS011;51140;45.340;5.980;2022-07-17T12:41:46;7.10;;;2.70;;
64712;SDS011;51140;45.340;5.980;2022-07-17T12:44:12;5.65;;;2.47;;
64712;SDS011;51140;45.340;5.980;2022-07-17T12:46:37;7.10;;;2.45;;
64712;SDS011;51140;45.340;5.980;2022-07-17T12:49:03;5.88;;;2.75;;
64712;SDS011;51140;45.340;5.980;2022-07-17T12:51:29;6.03;;;2.50;;
64712;SDS011;51140;45.340;5.980;2022-07-17T12:53:55;7.10;;;2.30;;
64712;SDS011;51140;45.340;5.980;2022-07-17T12:56:21;8.00;;;2.60;;
64712;SDS011;51140;45.340;5.980;2022-07-17T12:58:46;8.23;;;2.40;;
64712;SDS011;51140;45.340;5.980;2022-07-17T13:01:12;8.18;;;2.42;;
64712;SDS011;51140;45.340;5.980;2022-07-17T13:03:37;5.60;;;2.50;;
64712;SDS011;51140;45.340;5.980;2022-07-17T13:06:03;5.78;;;2.72;;
64712;SDS011;51140;45.340;5.980;2022-07-17T13:08:29;4.93;;;2.60;;
64712;SDS011;51140;45.340;5.980;2022-07-17T13:10:55;6.50;;;2.50;;
64712;SDS011;51140;45.340;5.980;2022-07-17T13:13:22;8.38;;;2.70;;
64712;SDS011;51140;45.340;5.980;2022-07-17T13:15:48;7.05;;;2.95;;
64712;SDS011;51140;45.340;5.980;2022-07-17T13:18:13;6.13;;;2.83;;
64712;SDS011;51140;45.340;5.980;2022-07-17T13:20:39;8.85;;;2.22;;
64712;SDS011;51140;45.340;5.980;2022-07-17T13:23:05;8.05;;;2.75;;
64712;SDS011;51140;45.340;5.980;2022-07-17T13:25:31;7.13;;;2.58;;
64712;SDS011;51140;45.340;5.980;2022-07-17T13:27:57;5.45;;;2.50;;
64712;SDS011;51140;45.340;5.980;2022-07-17T13:30:23;5.25;;;2.40;;
64712;SDS011;51140;45.340;5.980;2022-07-17T13:32:48;6.45;;;2.60;;
64712;SDS011;51140;45.340;5.980;2022-07-17T13:35:14;7.80;;;2.40;;
64712;SDS011;51140;45.340;5.980;2022-07-17T13:37:42;6.45;;;2.53;;
64712;SDS011;51140;45.340;5.980;2022-07-17T13:40:08;6.70;;;2.95;;
64712;SDS011;51140;45.340;5.980;2022-07-17T13:42:34;7.05;;;2.53;;
64712;SDS011;51140;45.340;5.980;2022-07-17T13:44:59;5.13;;;2.58;;
64712;SDS011;51140;45.340;5.980;2022-07-17T13:47:25;5.82;;;2.35;;
64712;SDS011;51140;45.340;5.980;2022-07-17T13:49:50;7.47;;;2.67;;
64712;SDS011;51140;45.340;5.980;2022-07-17T13:52:15;4.53;;;2.25;;
64712;SDS011;51140;45.340;5.980;2022-07-17T13:54:41;5.47;;;2.70;;
64712;SDS011;51140;45.340;5.980;2022-07-17T13:57:06;5.43;;;2.58;;
64712;SDS011;51140;45.340;5.980;2022-07-17T13:59:32;5.57;;;2.35;;
64712;SDS011;51140;45.340;5.980;2022-07-17T14:01:57;4.90;;;2.22;;
64712;SDS011;51140;45.340;5.980;2022-07-17T14:04:22;5.78;;;2.33;;
64712;SDS011;51140;45.340;5.980;2022-07-17T14:06:48;5.38;;;2.55;;
64712;SDS011;51140;45.340;5.980;2022-07-17T14:09:13;5.00;;;2.40;;
64712;SDS011;51140;45.340;5.980;2022-07-17T14:11:38;5.38;;;2.42;;
64712;SDS011;51140;45.340;5.980;2022-07-17T14:14:04;7.05;;;2.45;;
64712;SDS011;51140;45.340;5.980;2022-07-17T14:16:29;5.82;;;2.50;;
64712;SDS011;51140;45.340;5.980;2022-07-17T14:18:55;6.28;;;2.40;;
64712;SDS011;51140;45.340;5.980;2022-07-17T14:21:25;14.05;;;2.53;;
64712;SDS011;51140;45.340;5.980;2022-07-17T14:23:51;5.75;;;2.55;;
64712;SDS011;51140;45.340;5.980;2022-07-17T14:26:16;5.10;;;2.63;;
64712;SDS011;51140;45.340;5.980;2022-07-17T14:28:41;7.03;;;2.38;;
64712;SDS011;51140;45.340;5.980;2022-07-17T14:31:07;9.18;;;2.50;;
64712;SDS011;51140;45.340;5.980;2022-07-17T14:33:32;5.28;;;2.38;;
64712;SDS011;51140;45.340;5.980;2022-07-17T14:35:58;6.07;;;2.50;;
64712;SDS011;51140;45.340;5.980;2022-07-17T14:38:23;5.45;;;2.20;;
64712;SDS011;51140;45.340;5.980;2022-07-17T14:40:49;5.32;;;2.58;;
64712;SDS011;51140;45.340;5.980;2022-07-17T14:43:14;8.00;;;2.22;;
64712;SDS011;51140;45.340;5.980;2022-07-17T14:45:39;4.93;;;2.45;;
64712;SDS011;51140;45.340;5.980;2022-07-17T14:48:05;4.70;;;2.22;;
64712;SDS011;51140;45.340;5.980;2022-07-17T14:50:30;5.00;;;2.60;;
64712;SDS011;51140;45.340;5.980;2022-07-17T14:52:56;6.38;;;2.40;;
64712;SDS011;51140;45.340;5.980;2022-07-17T14:55:21;6.57;;;2.60;;
64712;SDS011;51140;45.340;5.980;2022-07-17T14:57:47;5.22;;;2.30;;
64712;SDS011;51140;45.340;5.980;2022-07-17T15:00:12;4.22;;;2.20;;
64712;SDS011;51140;45.340;5.980;2022-07-17T15:02:39;4.85;;;2.30;;